Time;durP1;ratioP1;P1;durP2;ratioP2;P2;SDS_P1;SDS_P2;PMS_P1;PMS_P2;Temp;Humidity;BMP_temperature;BMP_pressure;BME280_temperature;BME280_humidity;BME280_pressure;Samples;Min_cycle;Max_cycle;Signal;HPM_P1;HPM_P2
2023/07/17 00:01:03;;;;;;;5.75;2.60;;;;;;;;;;4925643;29;20052;-88
2023/07/17 00:03:31;;;;;;;6.65;3.13;;;;;;;;;;4927968;29;20052;-88
2023/07/17 00:05:58;;;;;;;8.15;3.25;;;;;;;;;;4927437;29;20052;-87
2023/07/17 00:08:26;;;;;;;8.57;2.60;;;;;;;;;;4927427;29;20067;-88
2023/07/17 00:10:58;;;;;;;10.30;3.17;;;;;;;;;;4927742;29;20119;-88
2023/07/17 00:13:25;;;;;;;12.15;3.53;;;;;;;;;;4926324;29;20063;-88
2023/07/17 00:15:52;;;;;;;8.07;3.10;;;;;;;;;;4926806;29;20449;-88
2023/07/17 00:18:19;;;;;;;4.65;2.85;;;;;;;;;;4926473;29;20364;-88
2023/07/17 00:20:45;;;;;;;10.13;3.08;;;;;;;;;;4924420;29;20102;-88
2023/07/17 00:23:12;;;;;;;5.70;3.20;;;;;;;;;;4925406;29;20337;-89
2023/07/17 00:25:39;;;;;;;6.15;3.13;;;;;;;;;;4926788;29;20062;-89
2023/07/17 00:28:06;;;;;;;5.13;3.10;;;;;;;;;;4928661;29;20047;-89
2023/07/17 00:30:33;;;;;;;7.35;2.60;;;;;;;;;;4928835;29;20052;-88
2023/07/17 00:33:02;;;;;;;6.13;2.97;;;;;;;;;;4925508;29;20131;-88
2023/07/17 00:35:30;;;;;;;6.78;2.70;;;;;;;;;;4929763;29;20074;-88
2023/07/17 00:37:57;;;;;;;8.00;3.35;;;;;;;;;;4911321;29;20137;-88
2023/07/17 00:40:24;;;;;;;8.60;2.83;;;;;;;;;;4911547;29;20052;-88
2023/07/17 00:42:57;;;;;;;4.88;2.67;;;;;;;;;;4913704;29;20051;-89
2023/07/17 00:45:24;;;;;;;8.02;3.53;;;;;;;;;;4919606;29;20067;-88
2023/07/17 00:47:51;;;;;;;6.32;2.85;;;;;;;;;;4910610;29;20056;-88
2023/07/17 00:50:19;;;;;;;5.05;2.60;;;;;;;;;;4911670;29;20318;-88
2023/07/17 00:52:46;;;;;;;7.88;2.95;;;;;;;;;;4911222;29;20056;-88
2023/07/17 00:55:17;;;;;;;5.45;3.20;;;;;;;;;;4927202;29;20052;-89
2023/07/17 00:57:44;;;;;;;7.40;2.88;;;;;;;;;;4910635;29;20111;-88
2023/07/17 01:00:12;;;;;;;12.73;2.95;;;;;;;;;;4910618;29;20055;-88
2023/07/17 01:02:42;;;;;;;11.25;2.90;;;;;;;;;;4927568;29;20066;-88
2023/07/17 01:05:09;;;;;;;5.72;3.13;;;;;;;;;;4912333;29;20143;-89
2023/07/17 01:07:45;;;;;;;5.60;2.90;;;;;;;;;;4926935;29;20111;-88
2023/07/17 01:10:13;;;;;;;7.47;2.97;;;;;;;;;;4914517;29;20051;-87
2023/07/17 01:12:39;;;;;;;7.63;3.50;;;;;;;;;;4930977;29;20063;-88
2023/07/17 01:15:06;;;;;;;4.43;2.55;;;;;;;;;;4914102;29;20052;-88
2023/07/17 01:17:33;;;;;;;5.15;2.67;;;;;;;;;;4927966;29;20048;-88
2023/07/17 01:20:00;;;;;;;7.10;2.85;;;;;;;;;;4925658;29;20048;-88
2023/07/17 01:22:29;;;;;;;12.05;3.35;;;;;;;;;;4909314;29;20052;-88
2023/07/17 01:24:59;;;;;;;9.45;3.47;;;;;;;;;;4926580;29;20060;-89
2023/07/17 01:27:26;;;;;;;8.05;3.45;;;;;;;;;;4908572;29;20091;-88
2023/07/17 01:29:52;;;;;;;6.00;3.05;;;;;;;;;;4927046;29;20060;-88
2023/07/17 01:32:20;;;;;;;5.40;2.88;;;;;;;;;;4925815;29;20050;-89
2023/07/17 01:34:47;;;;;;;8.88;3.13;;;;;;;;;;4919915;29;20249;-88
2023/07/17 01:37:14;;;;;;;5.53;3.15;;;;;;;;;;4924662;29;20079;-89
2023/07/17 01:39:41;;;;;;;6.50;2.78;;;;;;;;;;4928832;29;20116;-88
2023/07/17 01:42:08;;;;;;;6.60;3.30;;;;;;;;;;4928936;29;20397;-89
2023/07/17 01:44:35;;;;;;;8.23;3.13;;;;;;;;;;4929458;29;20381;-89
2023/07/17 01:47:17;;;;;;;6.25;3.28;;;;;;;;;;4929887;29;20056;-89
2023/07/17 01:49:44;;;;;;;7.43;2.63;;;;;;;;;;4930247;29;20052;-88
2023/07/17 01:52:12;;;;;;;8.00;3.20;;;;;;;;;;4930196;29;20052;-88
2023/07/17 01:54:39;;;;;;;8.02;3.20;;;;;;;;;;4930791;29;20052;-88
2023/07/17 01:57:06;;;;;;;6.50;3.42;;;;;;;;;;4931854;29;20121;-89
2023/07/17 01:59:43;;;;;;;6.85;3.67;;;;;;;;;;4931803;28;20423;-89
2023/07/17 02:02:09;;;;;;;9.57;2.88;;;;;;;;;;4929336;29;20108;-88
2023/07/17 02:04:37;;;;;;;7.45;3.45;;;;;;;;;;4930671;29;20379;-88
2023/07/17 02:07:04;;;;;;;7.68;3.45;;;;;;;;;;4929611;29;20052;-89
2023/07/17 02:09:30;;;;;;;7.68;3.70;;;;;;;;;;4933071;29;20047;-88
2023/07/17 02:11:57;;;;;;;8.05;3.22;;;;;;;;;;4930082;29;20052;-88
2023/07/17 02:14:25;;;;;;;5.85;3.30;;;;;;;;;;4929269;29;20059;-88
2023/07/17 02:16:52;;;;;;;9.05;3.80;;;;;;;;;;4928480;29;20093;-88
2023/07/17 02:19:22;;;;;;;7.93;4.03;;;;;;;;;;4928061;29;20089;-88
2023/07/17 02:21:52;;;;;;;6.68;3.17;;;;;;;;;;4926439;29;20325;-89
2023/07/17 02:24:19;;;;;;;10.48;3.35;;;;;;;;;;4928586;29;20054;-88
2023/07/17 02:26:46;;;;;;;10.65;3.58;;;;;;;;;;4928877;29;20052;-88
2023/07/17 02:29:13;;;;;;;8.13;3.90;;;;;;;;;;4928169;29;20052;-88
2023/07/17 02:31:40;;;;;;;7.88;3.22;;;;;;;;;;4928939;29;20112;-88
2023/07/17 02:34:07;;;;;;;8.50;3.53;;;;;;;;;;4930760;29;20056;-88
2023/07/17 02:36:35;;;;;;;10.95;3.47;;;;;;;;;;4913886;29;20083;-88
2023/07/17 02:39:03;;;;;;;7.68;3.60;;;;;;;;;;4913819;29;20095;-89
2023/07/17 02:41:33;;;;;;;8.43;3.97;;;;;;;;;;4929921;29;20060;-88
2023/07/17 02:44:00;;;;;;;5.97;2.85;;;;;;;;;;4912702;29;20052;-89
2023/07/17 02:46:28;;;;;;;12.10;3.72;;;;;;;;;;4929463;29;20067;-88
2023/07/17 02:48:55;;;;;;;10.40;3.60;;;;;;;;;;4913164;29;20059;-89
2023/07/17 02:51:21;;;;;;;6.30;3.33;;;;;;;;;;4928959;29;20237;-88
2023/07/17 02:53:48;;;;;;;10.88;3.58;;;;;;;;;;4913801;29;20317;-88
2023/07/17 02:56:23;;;;;;;8.45;3.92;;;;;;;;;;4913651;29;20056;-88
2023/07/17 02:58:53;;;;;;;11.40;3.72;;;;;;;;;;4930808;29;20052;-87
2023/07/17 03:01:22;;;;;;;9.80;3.10;;;;;;;;;;4913449;29;20048;-88
2023/07/17 03:03:49;;;;;;;6.43;3.35;;;;;;;;;;4912078;29;20055;-88
2023/07/17 03:06:18;;;;;;;10.10;3.65;;;;;;;;;;4913328;29;20048;-88
2023/07/17 03:08:54;;;;;;;8.52;3.53;;;;;;;;;;4913028;29;20105;-89
2023/07/17 03:11:20;;;;;;;9.48;4.13;;;;;;;;;;4919552;29;20075;-88
2023/07/17 03:13:47;;;;;;;6.97;3.17;;;;;;;;;;4937893;29;20040;-89
2023/07/17 03:16:14;;;;;;;11.35;3.42;;;;;;;;;;4929384;29;20063;-88
2023/07/17 03:18:47;;;;;;;12.23;3.72;;;;;;;;;;4913428;29;20055;-88
2023/07/17 03:21:28;;;;;;;7.93;3.85;;;;;;;;;;4926995;29;20042;-88
2023/07/17 03:27:34;;;;;;;7.32;3.58;;;;;;;;;;4942553;29;20063;-89
2023/07/17 03:35:38;;;;;;;7.82;3.58;;;;;;;;;;4922350;27;20072;-87
2023/07/17 03:38:22;;;;;;;11.95;3.58;;;;;;;;;;4908675;29;20068;-89
2023/07/17 03:41:04;;;;;;;9.40;3.55;;;;;;;;;;4908958;29;20047;-89
2023/07/17 03:43:59;;;;;;;6.00;3.25;;;;;;;;;;4922692;29;20040;-88
2023/07/17 03:46:42;;;;;;;9.70;3.40;;;;;;;;;;4908124;29;20036;-89
2023/07/17 03:49:32;;;;;;;7.95;3.70;;;;;;;;;;4908650;29;20036;-88
2023/07/17 03:52:13;;;;;;;12.43;3.47;;;;;;;;;;4908542;29;20036;-88
2023/07/17 03:54:55;;;;;;;10.10;3.28;;;;;;;;;;4907010;29;20033;-90
2023/07/17 03:57:42;;;;;;;6.28;3.30;;;;;;;;;;4921965;29;20024;-89
2023/07/17 04:00:24;;;;;;;6.75;3.22;;;;;;;;;;4921762;29;20036;-88
2023/07/17 04:03:06;;;;;;;9.88;3.22;;;;;;;;;;4907230;29;20077;-89
2023/07/17 04:05:47;;;;;;;12.15;3.15;;;;;;;;;;4922604;29;20052;-88
2023/07/17 04:08:28;;;;;;;9.32;3.05;;;;;;;;;;4921559;29;20064;-90
2023/07/17 04:11:09;;;;;;;11.60;3.72;;;;;;;;;;4907181;29;20037;-88
2023/07/17 04:13:52;;;;;;;7.60;3.47;;;;;;;;;;4921317;29;20032;-89
2023/07/17 04:16:36;;;;;;;6.50;3.00;;;;;;;;;;4894062;29;20092;-89
2023/07/17 04:19:51;;;;;;;5.88;2.85;;;;;;;;;;4907449;29;20104;-89
2023/07/17 04:22:35;;;;;;;9.60;3.03;;;;;;;;;;4925775;23;20047;-88
2023/07/17 04:25:18;;;;;;;9.93;4.10;;;;;;;;;;5066951;23;20063;-88
2023/07/17 04:27:59;;;;;;;10.13;3.67;;;;;;;;;;4924895;29;20043;-88
2023/07/17 04:30:51;;;;;;;11.80;3.28;;;;;;;;;;4925507;29;20028;-88
2023/07/17 04:33:34;;;;;;;10.68;3.72;;;;;;;;;;4903282;29;20056;-87
2023/07/17 04:36:18;;;;;;;7.97;2.85;;;;;;;;;;4939783;29;20116;-88
2023/07/17 04:38:59;;;;;;;11.30;3.35;;;;;;;;;;4925491;29;20096;-88
2023/07/17 04:41:45;;;;;;;9.43;3.47;;;;;;;;;;4965453;23;20263;-88
2023/07/17 04:44:43;;;;;;;9.90;3.22;;;;;;;;;;5206254;23;20039;-88
2023/07/17 04:47:56;;;;;;;8.55;3.38;;;;;;;;;;4939610;29;20084;-89
2023/07/17 04:51:14;;;;;;;9.20;3.10;;;;;;;;;;4940473;29;20038;-89
2023/07/17 04:53:54;;;;;;;6.45;3.38;;;;;;;;;;4940610;29;20036;-88
2023/07/17 04:56:35;;;;;;;7.88;3.10;;;;;;;;;;4938121;29;20107;-89
2023/07/17 05:03:00;;;;;;;8.88;3.08;;;;;;;;;;4940204;29;20062;-89
2023/07/17 05:05:43;;;;;;;9.57;3.03;;;;;;;;;;4938329;29;20103;-87
2023/07/17 05:08:42;;;;;;;6.78;2.88;;;;;;;;;;4940183;29;20075;-89
2023/07/17 05:11:22;;;;;;;11.48;3.17;;;;;;;;;;4938633;29;20028;-88
2023/07/17 05:14:03;;;;;;;5.00;2.75;;;;;;;;;;5110949;23;20033;-89
2023/07/17 05:19:28;;;;;;;13.43;2.80;;;;;;;;;;5467374;23;20051;-88
2023/07/17 05:22:11;;;;;;;6.90;2.95;;;;;;;;;;4925160;29;20032;-88
2023/07/17 05:27:36;;;;;;;7.77;3.50;;;;;;;;;;5147656;23;20044;-88
2023/07/17 05:30:17;;;;;;;11.85;4.00;;;;;;;;;;4920273;29;20044;-89
2023/07/17 05:39:46;;;;;;;9.23;3.20;;;;;;;;;;4921158;29;20147;-89
2023/07/17 05:42:28;;;;;;;9.45;2.97;;;;;;;;;;5000222;23;20035;-90
2023/07/17 05:45:10;;;;;;;4.97;2.60;;;;;;;;;;4938808;29;20067;-89
2023/07/17 05:48:11;;;;;;;6.68;3.00;;;;;;;;;;5956975;23;20370;-88
2023/07/17 05:50:57;;;;;;;9.27;2.70;;;;;;;;;;5058298;23;20040;-88
2023/07/17 05:53:40;;;;;;;5.68;2.28;;;;;;;;;;4939294;28;20036;-89
2023/07/17 06:07:33;;;;;;;7.32;2.72;;;;;;;;;;4917063;29;20055;-89
2023/07/17 06:12:49;;;;;;;5.30;2.30;;;;;;;;;;5081703;23;20055;-89
2023/07/17 06:15:36;;;;;;;9.55;2.65;;;;;;;;;;4956797;28;20120;-89
2023/07/17 06:18:35;;;;;;;4.85;2.45;;;;;;;;;;4955870;28;20051;-89
2023/07/17 06:21:17;;;;;;;6.45;2.25;;;;;;;;;;4956277;28;20066;-88
2023/07/17 06:29:24;;;;;;;5.82;2.55;;;;;;;;;;5065823;23;20987;-89
2023/07/17 06:32:08;;;;;;;9.10;2.58;;;;;;;;;;4939738;28;20048;-90
2023/07/17 06:34:58;;;;;;;5.90;2.10;;;;;;;;;;5080629;23;20043;-91
2023/07/17 06:37:43;;;;;;;4.78;2.33;;;;;;;;;;4945185;29;20046;-89
2023/07/17 06:41:04;;;;;;;5.65;2.38;;;;;;;;;;4945843;28;20046;-89
2023/07/17 06:44:05;;;;;;;8.10;2.55;;;;;;;;;;5078362;23;20036;-88
2023/07/17 06:46:48;;;;;;;9.52;2.90;;;;;;;;;;4940557;28;20115;-89
2023/07/17 06:49:43;;;;;;;5.88;2.15;;;;;;;;;;4938998;28;20032;-89
2023/07/17 06:52:24;;;;;;;5.32;2.30;;;;;;;;;;4940522;28;20084;-90
2023/07/17 06:55:38;;;;;;;7.93;1.88;;;;;;;;;;4940913;28;20044;-90
2023/07/17 06:58:21;;;;;;;5.00;2.22;;;;;;;;;;4941361;28;20052;-89
2023/07/17 07:01:08;;;;;;;7.75;2.03;;;;;;;;;;4940592;28;20035;-89
2023/07/17 07:03:51;;;;;;;5.18;1.75;;;;;;;;;;2404805;23;20042;-89
2023/07/17 07:06:32;;;;;;;6.78;2.13;;;;;;;;;;4966130;23;20127;-88
2023/07/17 07:09:12;;;;;;;7.70;2.03;;;;;;;;;;4939700;29;20028;-89
2023/07/17 07:11:54;;;;;;;5.68;1.73;;;;;;;;;;4940495;29;20048;-89
2023/07/17 07:20:48;;;;;;;14.80;1.67;;;;;;;;;;4991591;23;20064;-90
2023/07/17 07:23:44;;;;;;;5.55;1.58;;;;;;;;;;4940588;28;20044;-88
2023/07/17 07:29:12;;;;;;;4.78;1.80;;;;;;;;;;2281992;27;20076;-90
2023/07/17 07:32:16;;;;;;;4.78;1.65;;;;;;;;;;4920368;29;20062;-90
2023/07/17 07:35:35;;;;;;;9.68;2.00;;;;;;;;;;4905247;29;20052;-90
2023/07/17 07:38:28;;;;;;;3.38;1.40;;;;;;;;;;5124934;23;20075;-88
2023/07/17 07:44:17;;;;;;;7.22;1.85;;;;;;;;;;5088925;23;20107;-89
2023/07/17 07:47:01;;;;;;;5.20;1.95;;;;;;;;;;4957961;28;20044;-89
2023/07/17 07:57:38;;;;;;;7.50;1.92;;;;;;;;;;4071916;23;20036;-90
2023/07/17 08:03:07;;;;;;;7.40;2.00;;;;;;;;;;838083;27;20482;-89
2023/07/17 08:05:52;;;;;;;6.30;1.63;;;;;;;;;;4919630;29;20045;-89
2023/07/17 08:18:53;;;;;;;5.28;1.60;;;;;;;;;;5028380;23;20056;-88
2023/07/17 08:30:05;;;;;;;5.28;1.90;;;;;;;;;;2260720;23;20051;-90
2023/07/17 08:32:56;;;;;;;4.80;1.90;;;;;;;;;;4956676;29;20116;-89
2023/07/17 08:35:40;;;;;;;6.88;2.13;;;;;;;;;;4957863;29;20047;-90
2023/07/17 08:38:26;;;;;;;4.72;1.90;;;;;;;;;;4940850;29;20119;-89
2023/07/17 08:41:14;;;;;;;3.90;1.90;;;;;;;;;;4942560;29;20197;-90
2023/07/17 08:46:52;;;;;;;3.70;1.73;;;;;;;;;;4900111;23;20048;-89
2023/07/17 08:49:34;;;;;;;6.65;2.20;;;;;;;;;;5111223;23;20043;-90
2023/07/17 08:52:28;;;;;;;9.07;1.83;;;;;;;;;;4937259;29;20044;-90
2023/07/17 09:06:13;;;;;;;6.13;2.17;;;;;;;;;;4936382;28;20106;-89
2023/07/17 09:28:34;;;;;;;5.95;2.30;;;;;;;;;;5113005;23;20049;-90
2023/07/17 09:39:16;;;;;;;5.43;2.50;;;;;;;;;;5485072;23;20175;-90
2023/07/17 09:44:50;;;;;;;8.73;2.80;;;;;;;;;;5548334;23;20084;-90
2023/07/17 09:47:35;;;;;;;6.38;2.55;;;;;;;;;;4935657;28;20047;-91
2023/07/17 09:52:52;;;;;;;7.90;2.72;;;;;;;;;;5404427;23;20023;-89
2023/07/17 09:55:35;;;;;;;6.22;2.85;;;;;;;;;;4922647;29;20112;-91
2023/07/17 10:00:58;;;;;;;8.65;3.13;;;;;;;;;;5214841;23;20064;-90
2023/07/17 10:04:11;;;;;;;7.38;2.80;;;;;;;;;;4941226;28;20036;-91
2023/07/17 10:09:39;;;;;;;6.57;2.80;;;;;;;;;;5244723;23;20048;-89
2023/07/17 10:12:20;;;;;;;9.00;3.22;;;;;;;;;;4888890;29;20052;-90
2023/07/17 10:15:06;;;;;;;5.43;2.97;;;;;;;;;;4888530;29;20104;-90
2023/07/17 10:32:44;;;;;;;10.02;3.22;;;;;;;;;;4901731;29;20077;-90
2023/07/17 10:38:51;;;;;;;9.55;2.90;;;;;;;;;;4999761;23;20070;-90
2023/07/17 10:41:36;;;;;;;6.20;2.55;;;;;;;;;;4980555;23;20031;-90
2023/07/17 10:44:22;;;;;;;5.13;2.72;;;;;;;;;;4939572;28;20102;-89
2023/07/17 10:47:05;;;;;;;11.23;3.03;;;;;;;;;;4941072;28;20059;-90
2023/07/17 10:49:49;;;;;;;8.82;3.13;;;;;;;;;;4938808;28;20036;-90
2023/07/17 10:53:05;;;;;;;13.45;3.20;;;;;;;;;;4938832;28;20318;-93
2023/07/17 10:55:49;;;;;;;7.10;2.65;;;;;;;;;;4940153;28;20044;-90
2023/07/17 10:58:30;;;;;;;9.10;3.08;;;;;;;;;;4940973;28;20072;-89
2023/07/17 11:01:35;;;;;;;10.77;2.38;;;;;;;;;;4940422;28;20044;-89
2023/07/17 11:04:33;;;;;;;5.28;2.30;;;;;;;;;;4940106;28;20035;-90
2023/07/17 11:13:32;;;;;;;5.65;2.65;;;;;;;;;;5184556;23;20044;-90
2023/07/17 11:16:35;;;;;;;6.22;2.00;;;;;;;;;;4938888;29;20050;-89
2023/07/17 11:25:04;;;;;;;4.95;1.75;;;;;;;;;;5013248;23;20054;-90
2023/07/17 11:27:47;;;;;;;10.80;3.28;;;;;;;;;;5097410;23;20948;-87
2023/07/17 11:30:45;;;;;;;7.50;2.70;;;;;;;;;;4939365;29;20120;-91
2023/07/17 11:33:34;;;;;;;10.88;2.30;;;;;;;;;;4924358;29;20024;-89
2023/07/17 11:41:53;;;;;;;5.07;1.27;;;;;;;;;;5615362;23;20050;-90
2023/07/17 11:47:26;;;;;;;6.43;1.52;;;;;;;;;;5094466;23;20048;-92
2023/07/17 11:53:05;;;;;;;5.22;1.55;;;;;;;;;;5459651;23;20064;-89
2023/07/17 12:01:30;;;;;;;3.33;1.70;;;;;;;;;;2807515;23;20048;-91
2023/07/17 12:04:44;;;;;;;3.60;2.05;;;;;;;;;;4924268;29;20056;-89
2023/07/17 12:12:37;;;;;;;11.70;2.55;;;;;;;;;;2985324;27;20067;-89
2023/07/17 12:18:12;;;;;;;9.13;2.35;;;;;;;;;;4935588;28;20280;-88
2023/07/17 12:20:52;;;;;;;6.25;2.50;;;;;;;;;;4934739;28;20086;-90
2023/07/17 12:23:57;;;;;;;6.50;2.30;;;;;;;;;;4928364;29;20059;-91
2023/07/17 12:26:42;;;;;;;4.80;1.38;;;;;;;;;;4934410;28;20036;-90
2023/07/17 12:29:35;;;;;;;4.45;1.80;;;;;;;;;;5064901;23;20103;-90
2023/07/17 12:32:47;;;;;;;6.13;1.63;;;;;;;;;;4976648;23;20242;-88
2023/07/17 12:35:28;;;;;;;7.88;1.33;;;;;;;;;;4939428;28;20027;-89
2023/07/17 12:38:54;;;;;;;6.97;1.13;;;;;;;;;;4940419;28;20039;-91
2023/07/17 12:41:34;;;;;;;7.75;1.55;;;;;;;;;;4940319;28;20035;-90
2023/07/17 12:44:16;;;;;;;3.25;1.45;;;;;;;;;;5325552;23;20048;-88
2023/07/17 12:46:58;;;;;;;4.95;1.50;;;;;;;;;;4939853;28;20040;-88
2023/07/17 12:52:16;;;;;;;3.00;1.70;;;;;;;;;;5017558;23;20039;-86
2023/07/17 12:54:57;;;;;;;4.22;1.55;;;;;;;;;;4943573;29;20122;-89
2023/07/17 12:57:46;;;;;;;4.50;1.60;;;;;;;;;;5057378;23;20052;-89
2023/07/17 13:00:27;;;;;;;6.82;1.60;;;;;;;;;;4939305;28;20068;-88
2023/07/17 13:03:13;;;;;;;4.40;1.83;;;;;;;;;;4938351;28;20089;-89
2023/07/17 13:06:05;;;;;;;2.65;1.60;;;;;;;;;;4937353;28;20036;-89
2023/07/17 13:14:11;;;;;;;3.28;1.50;;;;;;;;;;4935237;28;20075;-89
2023/07/17 13:16:51;;;;;;;2.47;1.42;;;;;;;;;;4920773;28;20060;-89
2023/07/17 13:19:38;;;;;;;3.80;1.70;;;;;;;;;;4919219;28;20052;-87
2023/07/17 13:22:21;;;;;;;3.17;1.60;;;;;;;;;;4932823;28;20064;-88
2023/07/17 13:25:11;;;;;;;3.38;1.60;;;;;;;;;;4918776;29;20067;-88
2023/07/17 13:27:52;;;;;;;4.28;1.70;;;;;;;;;;4930665;28;20115;-89
2023/07/17 13:30:36;;;;;;;3.70;1.85;;;;;;;;;;4913195;28;20039;-87
2023/07/17 13:33:21;;;;;;;4.13;1.73;;;;;;;;;;4914790;29;20111;-88
2023/07/17 13:36:15;;;;;;;;;;;;;;;;;;;;;
2023/07/17 13:38:56;;;;;;;6.10;1.80;;;;;;;;;;4931227;28;20119;-87
2023/07/17 13:41:40;;;;;;;8.98;2.28;;;;;;;;;;4915270;28;20039;-87
2023/07/17 13:44:11;;;;;;;4.32;1.88;;;;;;;;;;4912303;29;20079;-87
2023/07/17 13:46:54;;;;;;;5.72;2.33;;;;;;;;;;4929128;28;20259;-87
2023/07/17 13:49:26;;;;;;;7.03;2.50;;;;;;;;;;4913509;29;20087;-87
2023/07/17 13:51:57;;;;;;;8.48;2.50;;;;;;;;;;4913567;28;20087;-87
2023/07/17 13:54:58;;;;;;;13.27;2.25;;;;;;;;;;4916589;29;20048;-88
2023/07/17 13:57:41;;;;;;;6.10;2.22;;;;;;;;;;4916421;29;20052;-87
2023/07/17 14:00:27;;;;;;;4.70;2.10;;;;;;;;;;4931716;29;20036;-88
2023/07/17 14:03:11;;;;;;;7.03;2.00;;;;;;;;;;4932937;28;20059;-88
2023/07/17 14:05:57;;;;;;;6.40;2.30;;;;;;;;;;4930608;29;20052;-89
2023/07/17 14:08:41;;;;;;;4.32;2.20;;;;;;;;;;4933660;28;20066;-86
2023/07/17 14:11:44;;;;;;;6.93;2.30;;;;;;;;;;4936024;28;20047;-89
2023/07/17 14:14:32;;;;;;;15.73;2.90;;;;;;;;;;4917043;29;20239;-87
2023/07/17 14:30:39;;;;;;;5.00;1.67;;;;;;;;;;4940245;28;20064;-88
2023/07/17 14:36:16;;;;;;;3.97;1.60;;;;;;;;;;5423586;23;20023;-88
2023/07/17 14:38:59;;;;;;;4.03;2.00;;;;;;;;;;4959693;28;20036;-87
2023/07/17 14:42:09;;;;;;;2.47;1.50;;;;;;;;;;4945874;28;20095;-89
2023/07/17 14:44:51;;;;;;;4.22;1.98;;;;;;;;;;4945323;28;20028;-88
2023/07/17 14:47:43;;;;;;;4.22;2.13;;;;;;;;;;4941379;23;20068;-87
2023/07/17 14:50:25;;;;;;;6.25;1.85;;;;;;;;;;4940174;28;20060;-88
2023/07/17 14:53:08;;;;;;;5.03;2.30;;;;;;;;;;4941839;23;20059;-89
2023/07/17 14:55:49;;;;;;;7.50;2.63;;;;;;;;;;4920935;29;20051;-88
2023/07/17 14:58:34;;;;;;;4.47;1.63;;;;;;;;;;4921341;29;20056;-89
2023/07/17 15:01:55;;;;;;;3.58;1.70;;;;;;;;;;4921829;29;20064;-88
2023/07/17 15:04:37;;;;;;;3.97;1.50;;;;;;;;;;4920083;29;20068;-89
2023/07/17 15:07:21;;;;;;;3.10;1.77;;;;;;;;;;4920880;29;20040;-88
2023/07/17 15:10:11;;;;;;;3.67;1.60;;;;;;;;;;5159973;23;20055;-88
2023/07/17 15:12:52;;;;;;;3.13;1.70;;;;;;;;;;4939423;28;20054;-89
2023/07/17 15:15:53;;;;;;;3.80;1.50;;;;;;;;;;4938519;28;20084;-88
2023/07/17 15:18:34;;;;;;;2.75;1.40;;;;;;;;;;4938690;28;20086;-88
2023/07/17 15:21:18;;;;;;;3.85;1.10;;;;;;;;;;4936545;28;20071;-88
2023/07/17 15:24:07;;;;;;;2.47;1.38;;;;;;;;;;4940354;28;20063;-87
2023/07/17 15:26:49;;;;;;;3.20;1.38;;;;;;;;;;4938514;28;20063;-88
2023/07/17 15:29:30;;;;;;;7.78;1.40;;;;;;;;;;4939026;28;20044;-87
2023/07/17 15:32:10;;;;;;;2.55;1.13;;;;;;;;;;4928556;28;20063;-87
2023/07/17 15:34:53;;;;;;;2.03;1.30;;;;;;;;;;4934297;28;20044;-87
2023/07/17 15:37:58;;;;;;;3.25;1.20;;;;;;;;;;4935485;28;20036;-87
2023/07/17 15:40:43;;;;;;;2.38;1.48;;;;;;;;;;4933423;28;20032;-87
2023/07/17 15:43:24;;;;;;;2.83;1.17;;;;;;;;;;4931159;29;20052;-87
2023/07/17 15:45:53;;;;;;;2.55;1.00;;;;;;;;;;4933617;29;20044;-88
2023/07/17 15:48:57;;;;;;;1.85;1.13;;;;;;;;;;4936005;28;20072;-87
2023/07/17 15:51:40;;;;;;;2.55;1.65;;;;;;;;;;4893833;28;20036;-88
2023/07/17 15:54:27;;;;;;;2.40;1.17;;;;;;;;;;4934821;28;20108;-88
2023/07/17 15:57:10;;;;;;;3.65;1.73;;;;;;;;;;4928807;28;20048;-87
2023/07/17 15:59:51;;;;;;;5.90;1.83;;;;;;;;;;4936350;28;20059;-88
2023/07/17 16:02:44;;;;;;;;;;;;;;;;;;4935368;28;20310;-87
2023/07/17 16:05:48;;;;;;;2.90;1.55;;;;;;;;;;4937527;28;19911;-90
2023/07/17 16:08:34;;;;;;;4.60;1.92;;;;;;;;;;4936809;28;20031;-87
2023/07/17 16:11:16;;;;;;;8.40;1.98;;;;;;;;;;5018364;23;20059;-88
2023/07/17 16:13:57;;;;;;;8.55;1.67;;;;;;;;;;4934313;28;20104;-88
2023/07/17 16:16:46;;;;;;;7.85;2.05;;;;;;;;;;4935293;28;20032;-88
2023/07/17 16:19:27;;;;;;;4.00;1.80;;;;;;;;;;4936492;28;20082;-89
2023/07/17 16:22:16;;;;;;;9.77;2.28;;;;;;;;;;4960776;23;20234;-88
2023/07/17 16:24:57;;;;;;;6.32;2.13;;;;;;;;;;4913348;29;20060;-89
2023/07/17 16:27:38;;;;;;;5.22;1.90;;;;;;;;;;4933671;29;20063;-88
2023/07/17 16:30:20;;;;;;;6.05;2.35;;;;;;;;;;4929204;29;20145;-87
2023/07/17 16:33:04;;;;;;;5.68;2.08;;;;;;;;;;4916453;29;20052;-87
2023/07/17 16:35:44;;;;;;;5.70;2.38;;;;;;;;;;4929531;29;20185;-87
2023/07/17 16:38:25;;;;;;;7.68;2.03;;;;;;;;;;4911943;29;20111;-86
2023/07/17 16:41:06;;;;;;;7.68;1.80;;;;;;;;;;4914831;29;20066;-86
2023/07/17 16:43:36;;;;;;;7.70;2.45;;;;;;;;;;4911580;29;20052;-87
2023/07/17 16:46:51;;;;;;;4.63;2.33;;;;;;;;;;4925053;29;20116;-86
2023/07/17 16:49:31;;;;;;;10.05;1.85;;;;;;;;;;4930298;29;20048;-87
2023/07/17 16:52:17;;;;;;;6.38;1.90;;;;;;;;;;4915620;29;20058;-87
2023/07/17 16:55:03;;;;;;;7.13;1.90;;;;;;;;;;4913091;29;20056;-87
2023/07/17 16:57:34;;;;;;;3.10;1.92;;;;;;;;;;4930573;29;20040;-87
2023/07/17 17:00:21;;;;;;;4.18;2.28;;;;;;;;;;4916478;29;20043;-86
2023/07/17 17:02:54;;;;;;;3.58;1.60;;;;;;;;;;4917165;29;20164;-86
2023/07/17 17:05:26;;;;;;;2.92;1.75;;;;;;;;;;4931715;29;20052;-88
2023/07/17 17:07:57;;;;;;;2.38;1.52;;;;;;;;;;4914760;29;20059;-87
2023/07/17 17:10:40;;;;;;;3.10;1.88;;;;;;;;;;4916670;29;20048;-87
2023/07/17 17:13:10;;;;;;;5.30;1.48;;;;;;;;;;4916238;29;20052;-88
2023/07/17 17:15:54;;;;;;;4.95;1.83;;;;;;;;;;4928885;29;20162;-87
2023/07/17 17:18:34;;;;;;;5.50;1.35;;;;;;;;;;4914700;29;20079;-87
2023/07/17 17:21:15;;;;;;;2.47;1.38;;;;;;;;;;4916023;29;20052;-87
2023/07/17 17:23:56;;;;;;;2.92;0.98;;;;;;;;;;4915402;29;20047;-86
2023/07/17 17:26:28;;;;;;;3.15;1.23;;;;;;;;;;4914152;29;20048;-86
2023/07/17 17:28:57;;;;;;;4.63;1.40;;;;;;;;;;4911396;29;20090;-86
2023/07/17 17:31:41;;;;;;;4.40;1.55;;;;;;;;;;4928302;29;20104;-87
2023/07/17 17:34:14;;;;;;;4.60;1.38;;;;;;;;;;4911196;29;20052;-87
2023/07/17 17:36:47;;;;;;;2.70;1.48;;;;;;;;;;4911071;29;20052;-86
2023/07/17 17:39:27;;;;;;;3.30;1.27;;;;;;;;;;4912804;29;20052;-88
2023/07/17 17:42:10;;;;;;;3.80;1.48;;;;;;;;;;4912404;29;20405;-87
2023/07/17 17:44:40;;;;;;;5.78;1.50;;;;;;;;;;4927371;29;20044;-88
2023/07/17 17:47:20;;;;;;;6.57;2.00;;;;;;;;;;4913445;29;20083;-87
2023/07/17 17:49:53;;;;;;;3.53;1.42;;;;;;;;;;4929106;29;20131;-87
2023/07/17 17:52:34;;;;;;;5.05;1.55;;;;;;;;;;4913721;29;20048;-87
2023/07/17 17:55:11;;;;;;;2.90;1.30;;;;;;;;;;4916317;29;20142;-87
2023/07/17 17:57:40;;;;;;;3.08;1.45;;;;;;;;;;4930806;29;20059;-87
2023/07/17 18:00:21;;;;;;;4.78;1.45;;;;;;;;;;4916618;29;20088;-87
2023/07/17 18:03:02;;;;;;;6.45;2.65;;;;;;;;;;4917278;29;20134;-88
2023/07/17 18:05:33;;;;;;;5.20;1.67;;;;;;;;;;4916559;29;20040;-87
2023/07/17 18:08:18;;;;;;;4.63;1.73;;;;;;;;;;4926748;29;20052;-88
2023/07/17 18:11:03;;;;;;;6.80;1.75;;;;;;;;;;4930130;29;20103;-87
2023/07/17 18:13:44;;;;;;;3.33;1.70;;;;;;;;;;4932592;29;20060;-87
2023/07/17 18:16:16;;;;;;;7.20;1.92;;;;;;;;;;4929946;29;20048;-88
2023/07/17 18:19:00;;;;;;;6.20;1.90;;;;;;;;;;4927721;29;20052;-87
2023/07/17 18:21:41;;;;;;;5.00;1.65;;;;;;;;;;4914996;29;20198;-86
2023/07/17 18:24:16;;;;;;;4.35;1.73;;;;;;;;;;4931347;29;20056;-88
2023/07/17 18:26:57;;;;;;;4.00;1.83;;;;;;;;;;4932860;29;20083;-87
2023/07/17 18:29:38;;;;;;;11.15;2.25;;;;;;;;;;4917649;29;20048;-87
2023/07/17 18:32:18;;;;;;;4.00;1.92;;;;;;;;;;4934190;29;20112;-86
2023/07/17 18:35:10;;;;;;;5.32;1.80;;;;;;;;;;4934229;29;20516;-87
2023/07/17 18:37:44;;;;;;;7.57;1.85;;;;;;;;;;4934424;29;20828;-87
2023/07/17 18:40:25;;;;;;;6.72;1.85;;;;;;;;;;4915120;29;20084;-88
2023/07/17 18:43:10;;;;;;;7.50;2.08;;;;;;;;;;4918058;29;20044;-88
2023/07/17 18:45:45;;;;;;;3.97;1.67;;;;;;;;;;4934784;29;20079;-88
2023/07/17 18:48:16;;;;;;;3.28;1.80;;;;;;;;;;4934396;29;20068;-88
2023/07/17 18:51:05;;;;;;;5.18;2.13;;;;;;;;;;4930638;29;20140;-87
2023/07/17 18:53:46;;;;;;;3.92;1.73;;;;;;;;;;4921670;29;20052;-88
2023/07/17 18:56:27;;;;;;;4.43;1.75;;;;;;;;;;4920469;29;20051;-87
2023/07/17 18:59:17;;;;;;;4.38;1.75;;;;;;;;;;4916780;29;20448;-88
2023/07/17 19:02:04;;;;;;;4.25;1.88;;;;;;;;;;4919877;29;20058;-89
2023/07/17 19:04:47;;;;;;;3.90;2.15;;;;;;;;;;4918053;29;20048;-88
2023/07/17 19:07:31;;;;;;;6.70;2.33;;;;;;;;;;4918927;29;20056;-86
2023/07/17 19:10:06;;;;;;;6.13;2.28;;;;;;;;;;4932759;29;20087;-86
2023/07/17 19:13:15;;;;;;;3.13;1.60;;;;;;;;;;5063907;27;24696;-89
2023/07/17 19:15:58;;;;;;;7.82;1.85;;;;;;;;;;5058275;27;20401;-88
2023/07/17 19:18:31;;;;;;;2.70;1.77;;;;;;;;;;5063811;28;20284;-88
2023/07/17 19:21:24;;;;;;;7.38;2.10;;;;;;;;;;5061345;28;20053;-87
2023/07/17 19:24:06;;;;;;;5.40;2.05;;;;;;;;;;5057096;28;20048;-88
2023/07/17 19:26:46;;;;;;;5.32;1.92;;;;;;;;;;5059769;28;20049;-87
2023/07/17 19:29:27;;;;;;;5.78;1.77;;;;;;;;;;5062247;28;20433;-88
2023/07/17 19:32:30;;;;;;;4.75;1.95;;;;;;;;;;5060834;27;20041;-88
2023/07/17 19:35:11;;;;;;;4.13;1.88;;;;;;;;;;5062493;28;20055;-88
2023/07/17 19:38:01;;;;;;;7.75;1.40;;;;;;;;;;5063166;27;20044;-89
2023/07/17 19:40:45;;;;;;;4.43;0.90;;;;;;;;;;5090336;27;20049;-89
2023/07/17 19:43:26;;;;;;;1.85;0.90;;;;;;;;;;5063333;28;20050;-88
2023/07/17 19:46:07;;;;;;;6.45;1.70;;;;;;;;;;5130596;22;20038;-88